createdAt,value
2019-02-18T00:00:42.081Z,19.73
2019-02-18T00:03:10.700Z,18.80
2019-02-18T00:08:40.268Z,18.73
2019-02-18T00:11:08.501Z,17.13
2019-02-18T00:13:36.986Z,16.73
2019-02-18T00:19:06.405Z,21.77
2019-02-18T00:21:34.932Z,19.47
2019-02-18T00:24:03.058Z,20.47
2019-02-18T00:26:31.741Z,24.80
2019-02-18T00:28:59.629Z,17.83
2019-02-18T00:31:27.920Z,20.53
2019-02-18T00:34:08.578Z,19.10
2019-02-18T00:36:36.252Z,17.00
2019-02-18T00:39:05.343Z,17.67
2019-02-18T00:41:33.526Z,18.13
2019-02-18T00:44:01.435Z,21.00
2019-02-18T00:46:29.982Z,18.10
2019-02-18T00:48:58.598Z,20.90
2019-02-18T00:51:26.536Z,21.03
2019-02-18T00:53:55.180Z,21.20
2019-02-18T00:56:23.988Z,17.03
2019-02-18T00:58:52.339Z,18.87
2019-02-18T01:01:20.307Z,20.50
2019-02-18T01:03:48.583Z,17.67
2019-02-18T01:06:16.456Z,17.80
2019-02-18T01:08:44.817Z,20.37
2019-02-18T01:11:12.631Z,19.53
2019-02-18T01:13:40.774Z,18.93
2019-02-18T01:16:08.682Z,20.67
2019-02-18T01:18:36.581Z,17.30
2019-02-18T01:21:05.220Z,21.53
2019-02-18T01:23:33.109Z,23.63
2019-02-18T01:26:01.366Z,18.30
2019-02-18T01:28:29.659Z,18.27
2019-02-18T01:30:57.576Z,21.07
2019-02-18T01:33:26.155Z,17.93
2019-02-18T01:35:54.416Z,19.97
2019-02-18T01:38:22.641Z,21.97
2019-02-18T01:40:50.550Z,20.17
2019-02-18T01:43:18.948Z,18.63
2019-02-18T01:45:47.513Z,17.67
2019-02-18T01:48:15.392Z,18.27
2019-02-18T01:50:43.621Z,19.77
2019-02-18T01:53:11.870Z,20.20
2019-02-18T01:55:40.146Z,16.90
2019-02-18T01:58:08.524Z,18.30
2019-02-18T02:00:37.137Z,17.43
2019-02-18T02:03:05.708Z,17.40
2019-02-18T02:05:33.897Z,18.63
2019-02-18T02:08:02.485Z,17.90
2019-02-18T02:10:30.432Z,18.13
2019-02-18T02:13:37.086Z,18.60
2019-02-18T02:16:08.129Z,21.23
2019-02-18T02:18:35.901Z,19.20
2019-02-18T02:21:04.508Z,19.63
2019-02-18T02:23:33.091Z,18.80
2019-02-18T02:26:01.381Z,21.40
2019-02-18T02:28:29.987Z,17.93
2019-02-18T02:31:00.773Z,17.07
2019-02-18T02:33:34.919Z,14.87
2019-02-18T02:36:02.542Z,18.67
2019-02-18T02:38:31.105Z,18.03
2019-02-18T02:40:59.692Z,16.27
2019-02-18T02:43:28.260Z,16.10
2019-02-18T02:45:56.539Z,18.63
2019-02-18T02:48:24.417Z,15.63
2019-02-18T02:50:52.585Z,14.70
2019-02-18T02:53:21.129Z,15.70
2019-02-18T02:55:49.434Z,14.93
2019-02-18T02:58:17.837Z,16.17
2019-02-18T03:00:46.494Z,16.73
2019-02-18T03:03:15.129Z,17.07
2019-02-18T03:05:43.348Z,13.63
2019-02-18T03:08:19.862Z,15.33
2019-02-18T03:10:48.373Z,15.70
2019-02-18T03:13:16.685Z,14.10
2019-02-18T03:15:45.332Z,15.33
2019-02-18T03:18:13.274Z,16.20
2019-02-18T03:20:41.582Z,16.97
2019-02-18T03:23:10.223Z,15.43
2019-02-18T03:25:38.413Z,19.23
2019-02-18T03:28:45.061Z,18.40
2019-02-18T03:31:32.678Z,14.47
2019-02-18T03:34:05.009Z,14.97
2019-02-18T03:36:33.239Z,15.47
2019-02-18T03:39:01.178Z,13.73
2019-02-18T03:41:29.381Z,17.13
2019-02-18T03:43:57.176Z,13.70
2019-02-18T03:46:25.083Z,17.50
2019-02-18T03:48:53.614Z,16.23
2019-02-18T03:51:21.889Z,14.73
2019-02-18T03:53:50.136Z,16.47
2019-02-18T03:56:18.773Z,15.57
2019-02-18T03:58:47.100Z,19.27
2019-02-18T04:01:15.335Z,19.07
2019-02-18T04:03:43.596Z,17.97
2019-02-18T04:06:11.817Z,16.30
2019-02-18T04:08:43.026Z,16.83
2019-02-18T04:11:17.137Z,16.50
2019-02-18T04:13:45.091Z,16.70
2019-02-18T04:16:13.385Z,16.57
2019-02-18T04:18:41.977Z,14.97
2019-02-18T04:21:10.499Z,15.17
2019-02-18T04:23:38.442Z,15.40
2019-02-18T04:26:06.968Z,13.93
2019-02-18T04:28:35.308Z,14.73
2019-02-18T04:31:03.896Z,14.50
2019-02-18T04:33:31.786Z,16.77
2019-02-18T04:36:00.041Z,14.30
2019-02-18T04:38:28.081Z,15.77
2019-02-18T04:40:56.758Z,16.73
2019-02-18T04:43:25.197Z,14.27
2019-02-18T04:45:53.436Z,16.53
2019-02-18T04:48:22.005Z,17.53
2019-02-18T04:50:50.784Z,12.50
2019-02-18T04:53:18.227Z,15.20
2019-02-18T04:55:45.406Z,17.13
2019-02-18T04:58:13.613Z,16.43
2019-02-18T05:00:41.853Z,19.90
2019-02-18T05:03:09.762Z,14.93
2019-02-18T05:05:38.001Z,15.80
2019-02-18T05:08:05.927Z,21.73
2019-02-18T05:10:34.247Z,15.67
2019-02-18T05:13:02.875Z,20.07
2019-02-18T05:15:31.438Z,16.50
2019-02-18T05:17:59.306Z,16.83
2019-02-18T05:20:27.892Z,18.30
2019-02-18T05:22:55.786Z,18.90
2019-02-18T05:25:24.368Z,22.97
2019-02-18T05:27:52.741Z,27.47
2019-02-18T05:30:20.958Z,40.77
2019-02-18T05:32:48.818Z,39.97
2019-02-18T05:35:16.773Z,45.17
2019-02-18T05:37:45.359Z,35.37
2019-02-18T05:40:13.238Z,39.07
2019-02-18T05:42:41.887Z,34.87
2019-02-18T05:45:10.028Z,24.83
2019-02-18T05:47:37.902Z,31.53
2019-02-18T05:50:06.466Z,32.70
2019-02-18T05:52:35.171Z,27.03
2019-02-18T05:55:03.239Z,23.40
2019-02-18T05:57:31.447Z,22.83
2019-02-18T05:59:59.994Z,24.13
2019-02-18T06:02:28.608Z,38.50
2019-02-18T06:04:56.076Z,31.13
2019-02-18T06:07:24.748Z,26.50
2019-02-18T06:09:53.013Z,31.83
2019-02-18T06:12:21.226Z,29.87
2019-02-18T06:14:49.809Z,19.90
2019-02-18T06:17:18.083Z,24.67
2019-02-18T06:19:46.631Z,27.20
2019-02-18T06:22:15.248Z,20.53
2019-02-18T06:24:43.452Z,22.87
2019-02-18T06:27:11.759Z,23.13
2019-02-18T06:29:40.318Z,25.67
2019-02-18T06:32:08.228Z,22.77
2019-02-18T06:34:36.794Z,24.67
2019-02-18T06:37:04.644Z,24.53
2019-02-18T06:39:40.649Z,22.53
2019-02-18T06:42:11.176Z,20.17
2019-02-18T06:47:31.941Z,20.40
2019-02-18T06:50:00.514Z,21.00
2019-02-18T06:52:29.043Z,22.13
2019-02-18T06:54:57.675Z,19.13
2019-02-18T06:57:44.948Z,25.20
2019-02-18T07:00:32.763Z,23.53
2019-02-18T07:03:19.919Z,24.30
2019-02-18T07:05:54.388Z,22.90
2019-02-18T07:08:42.217Z,17.60
2019-02-18T07:11:29.940Z,18.47
2019-02-18T07:13:58.563Z,20.80
2019-02-18T07:16:26.807Z,19.90
2019-02-18T07:18:54.689Z,28.17
2019-02-18T07:21:22.983Z,27.07
2019-02-18T07:23:50.738Z,24.00
2019-02-18T07:26:19.262Z,25.00
2019-02-18T07:28:47.729Z,36.33
2019-02-18T07:31:15.938Z,37.30
2019-02-18T07:33:43.505Z,30.60
2019-02-18T07:36:12.156Z,26.97
2019-02-18T07:38:39.717Z,28.00
2019-02-18T07:41:08.003Z,28.17
2019-02-18T07:43:36.600Z,33.10
2019-02-18T07:46:05.183Z,30.27
2019-02-18T07:48:33.731Z,31.77
2019-02-18T07:51:02.367Z,25.70
2019-02-18T07:53:30.888Z,28.00
2019-02-18T07:55:59.599Z,38.50
2019-02-18T07:58:28.224Z,46.03
2019-02-18T08:00:56.772Z,47.00
2019-02-18T08:03:25.492Z,46.13
2019-02-18T08:05:54.033Z,43.23
2019-02-18T08:08:22.579Z,32.10
2019-02-18T08:10:51.391Z,38.23
2019-02-18T08:13:20.003Z,32.37
2019-02-18T08:15:48.249Z,24.20
2019-02-18T08:18:16.802Z,24.27
2019-02-18T08:20:45.167Z,28.73
2019-02-18T08:23:13.825Z,32.43
2019-02-18T08:25:42.116Z,29.93
2019-02-18T08:28:10.388Z,30.70
2019-02-18T08:30:38.663Z,28.83
2019-02-18T08:33:06.977Z,27.60
2019-02-18T08:35:34.907Z,23.87
2019-02-18T08:38:03.359Z,32.00
2019-02-18T08:40:31.902Z,26.50
2019-02-18T08:43:00.265Z,26.03
2019-02-18T08:45:28.859Z,27.80
2019-02-18T08:47:56.768Z,26.60
2019-02-18T08:50:25.418Z,29.57
2019-02-18T08:52:54.004Z,28.67
2019-02-18T08:55:21.944Z,27.30
2019-02-18T08:57:50.690Z,26.17
2019-02-18T09:00:18.432Z,22.67
2019-02-18T09:02:46.692Z,18.93
2019-02-18T09:05:15.391Z,27.90
2019-02-18T09:07:44.013Z,19.90
2019-02-18T09:10:12.097Z,18.83
2019-02-18T09:12:40.834Z,20.90
2019-02-18T09:15:09.574Z,19.43
2019-02-18T09:17:38.090Z,16.50
2019-02-18T09:20:07.044Z,17.90
2019-02-18T09:22:54.863Z,20.97
2019-02-18T09:28:06.393Z,20.57
2019-02-18T09:33:31.684Z,23.37
2019-02-18T09:36:00.674Z,19.80
2019-02-18T09:38:28.554Z,20.17
2019-02-18T09:40:56.552Z,22.47
2019-02-18T09:43:24.798Z,25.27
2019-02-18T09:45:53.085Z,33.27
2019-02-18T09:48:21.818Z,28.87
2019-02-18T09:50:50.090Z,23.67
2019-02-18T09:53:18.534Z,26.40
2019-02-18T09:55:46.858Z,24.37
2019-02-18T09:58:14.842Z,26.17
2019-02-18T10:00:43.483Z,30.00
2019-02-18T10:03:11.824Z,35.50
2019-02-18T10:05:40.506Z,27.90
2019-02-18T10:08:08.800Z,27.10
2019-02-18T10:10:37.073Z,22.83
2019-02-18T10:13:05.048Z,25.23
2019-02-18T10:15:33.318Z,39.07
2019-02-18T10:18:02.014Z,21.50
2019-02-18T10:20:29.998Z,25.93
2019-02-18T10:22:58.629Z,23.60
2019-02-18T10:25:27.370Z,20.60
2019-02-18T10:27:55.872Z,17.83
2019-02-18T10:30:24.665Z,13.93
2019-02-18T10:32:53.045Z,16.90
2019-02-18T10:35:21.428Z,14.90
2019-02-18T10:37:55.087Z,22.33
2019-02-18T10:40:25.809Z,20.87
2019-02-18T10:43:06.585Z,20.00
2019-02-18T10:45:34.580Z,37.10
2019-02-18T10:48:02.684Z,19.53
2019-02-18T10:50:31.074Z,16.93
2019-02-18T10:53:08.022Z,17.37
2019-02-18T10:58:19.078Z,15.13
2019-02-18T11:00:47.377Z,17.77
2019-02-18T11:03:15.286Z,13.83
2019-02-18T11:05:44.045Z,16.47
2019-02-18T11:08:12.508Z,12.83
2019-02-18T11:10:40.791Z,11.63
2019-02-18T11:13:09.593Z,11.67
2019-02-18T11:15:38.350Z,10.80
2019-02-18T11:18:07.225Z,10.33
2019-02-18T11:20:36.022Z,9.50
2019-02-18T11:23:05.044Z,10.17
2019-02-18T11:25:33.423Z,7.60
2019-02-18T11:28:01.761Z,9.10
2019-02-18T11:30:29.825Z,8.47
2019-02-18T11:32:58.646Z,9.23
2019-02-18T11:35:26.955Z,8.47
2019-02-18T11:37:54.944Z,8.17
2019-02-18T11:40:23.216Z,6.67
2019-02-18T11:42:52.349Z,11.47
2019-02-18T11:45:20.215Z,10.93
2019-02-18T11:47:48.688Z,22.80
2019-02-18T11:50:17.375Z,10.87
2019-02-18T11:52:45.663Z,8.47
2019-02-18T11:55:13.818Z,4.87
2019-02-18T11:57:42.523Z,4.37
2019-02-18T12:00:11.327Z,5.23
2019-02-18T12:02:40.204Z,3.33
2019-02-18T12:05:08.820Z,2.97
2019-02-18T12:07:40.220Z,3.83
2019-02-18T12:10:09.024Z,3.13
2019-02-18T12:12:38.079Z,3.80
2019-02-18T12:15:07.131Z,4.10
2019-02-18T12:17:35.544Z,3.73
2019-02-18T12:20:03.813Z,3.57
2019-02-18T12:22:32.581Z,4.13
2019-02-18T12:25:00.851Z,3.03
2019-02-18T12:27:32.069Z,3.63
2019-02-18T12:30:06.243Z,3.07
2019-02-18T12:32:34.530Z,3.07
2019-02-18T12:35:03.139Z,4.50
2019-02-18T12:37:31.511Z,3.00
2019-02-18T12:40:00.378Z,3.80
2019-02-18T12:42:28.660Z,3.43
2019-02-18T12:45:16.018Z,3.33
2019-02-18T12:47:44.800Z,4.33
2019-02-18T12:50:13.524Z,4.83
2019-02-18T12:52:42.285Z,5.80
2019-02-18T12:55:10.378Z,5.97
2019-02-18T12:57:47.044Z,4.73
2019-02-18T13:00:34.327Z,4.70
2019-02-18T13:03:14.365Z,5.10
2019-02-18T13:05:42.574Z,4.60
2019-02-18T13:08:10.475Z,5.20
2019-02-18T13:10:39.269Z,4.37
2019-02-18T13:13:07.642Z,6.67
2019-02-18T13:15:35.622Z,4.90
2019-02-18T13:20:32.424Z,4.77
2019-02-18T13:23:00.349Z,5.17
2019-02-18T13:25:29.050Z,5.10
2019-02-18T13:28:16.359Z,4.30
2019-02-18T13:30:55.697Z,4.40
2019-02-18T13:33:23.673Z,6.87
2019-02-18T13:36:00.391Z,5.07
2019-02-18T13:38:29.111Z,4.53
2019-02-18T13:40:57.015Z,4.67
2019-02-18T13:43:25.780Z,4.23
2019-02-18T13:45:54.426Z,3.23
2019-02-18T13:48:23.167Z,4.90
2019-02-18T13:50:51.914Z,3.33
2019-02-18T13:53:19.854Z,2.70
2019-02-18T13:55:48.036Z,3.20
2019-02-18T13:58:16.606Z,3.27
2019-02-18T14:00:44.889Z,2.27
2019-02-18T14:03:13.493Z,2.77
2019-02-18T14:05:42.343Z,2.67
2019-02-18T14:08:10.368Z,3.23
2019-02-18T14:10:39.161Z,3.27
2019-02-18T14:13:07.013Z,3.07
2019-02-18T14:15:35.306Z,2.77
2019-02-18T14:18:03.495Z,2.40
2019-02-18T14:20:31.713Z,2.08
2019-02-18T14:22:59.651Z,2.37
2019-02-18T14:25:27.903Z,1.82
2019-02-18T14:27:55.808Z,2.55
2019-02-18T14:30:43.355Z,4.05
2019-02-18T14:33:11.200Z,2.50
2019-02-18T14:35:39.254Z,14.35
2019-02-18T14:38:07.140Z,10.53
2019-02-18T14:40:35.527Z,12.40
2019-02-18T14:43:03.518Z,10.98
2019-02-18T14:45:31.985Z,6.92
2019-02-18T14:48:00.274Z,4.67
2019-02-18T14:50:36.548Z,4.10
2019-02-18T14:53:05.025Z,4.35
2019-02-18T14:55:33.310Z,2.70
2019-02-18T14:58:01.240Z,3.83
2019-02-18T15:00:29.850Z,4.60
2019-02-18T15:02:58.089Z,3.00
2019-02-18T15:05:26.226Z,3.13
2019-02-18T15:07:54.769Z,3.70
2019-02-18T15:10:23.414Z,4.60
2019-02-18T15:12:51.219Z,3.80
2019-02-18T15:15:19.150Z,2.58
2019-02-18T15:17:47.439Z,2.70
2019-02-18T15:20:15.724Z,3.05
2019-02-18T15:22:42.919Z,2.65
2019-02-18T15:25:30.495Z,3.53
2019-02-18T15:27:58.515Z,3.50
2019-02-18T15:30:27.374Z,4.35
2019-02-18T15:32:55.959Z,4.10
2019-02-18T15:35:24.249Z,4.90
2019-02-18T15:37:52.265Z,2.92
2019-02-18T15:43:16.942Z,3.23
2019-02-18T15:45:45.296Z,5.93
2019-02-18T15:48:13.678Z,5.37
2019-02-18T15:50:41.613Z,3.77
2019-02-18T15:53:10.314Z,3.53
2019-02-18T15:59:01.935Z,3.40
2019-02-18T16:01:29.560Z,3.60
2019-02-18T16:04:05.864Z,4.73
2019-02-18T16:06:33.925Z,6.03
2019-02-18T16:09:02.470Z,7.33
2019-02-18T16:11:30.730Z,4.27
2019-02-18T16:13:58.724Z,4.20
2019-02-18T16:16:26.786Z,8.00
2019-02-18T16:19:03.074Z,5.57
2019-02-18T16:21:31.863Z,3.40
2019-02-18T16:24:00.149Z,3.27
2019-02-18T16:26:28.373Z,4.43
2019-02-18T16:28:56.196Z,3.30
2019-02-18T16:31:24.859Z,3.43
2019-02-18T16:33:53.502Z,4.10
2019-02-18T16:36:21.941Z,5.17
2019-02-18T16:38:58.825Z,5.07
2019-02-18T16:41:27.432Z,5.10
2019-02-18T16:43:55.718Z,4.67
2019-02-18T16:46:24.596Z,5.10
2019-02-18T16:49:04.366Z,5.77
2019-02-18T16:51:32.885Z,4.80
2019-02-18T16:54:01.676Z,7.50
2019-02-18T16:56:30.438Z,9.63
2019-02-18T16:58:59.351Z,9.80
2019-02-18T17:01:28.006Z,12.50
2019-02-18T17:03:56.704Z,13.30
2019-02-18T17:06:25.088Z,13.60
2019-02-18T17:08:53.060Z,17.63
2019-02-18T17:11:21.426Z,18.43
2019-02-18T17:13:49.594Z,15.47
2019-02-18T17:16:17.790Z,13.23
2019-02-18T17:18:46.390Z,14.87
2019-02-18T17:21:14.874Z,10.07
2019-02-18T17:23:43.161Z,12.17
2019-02-18T17:26:11.435Z,9.17
2019-02-18T17:28:39.449Z,10.20
2019-02-18T17:31:07.910Z,10.83
2019-02-18T17:33:36.435Z,9.50
2019-02-18T17:36:04.374Z,9.87
2019-02-18T17:38:32.554Z,10.27
2019-02-18T17:41:01.545Z,13.23
2019-02-18T17:43:29.390Z,14.93
2019-02-18T17:45:58.003Z,19.03
2019-02-18T17:48:34.655Z,14.50
2019-02-18T17:51:02.963Z,18.67
2019-02-18T17:53:30.935Z,19.63
2019-02-18T17:55:59.125Z,18.67
2019-02-18T17:58:27.499Z,18.60
2019-02-18T18:03:51.299Z,18.50
2019-02-18T18:06:19.166Z,22.13
2019-02-18T18:08:47.576Z,22.63
2019-02-18T18:11:15.521Z,21.57
2019-02-18T18:13:55.219Z,20.10
2019-02-18T18:16:23.453Z,15.53
2019-02-18T18:18:51.714Z,13.87
2019-02-18T18:21:19.730Z,15.10
2019-02-18T18:23:48.410Z,17.97
2019-02-18T18:26:16.784Z,14.37
2019-02-18T18:28:45.054Z,17.67
2019-02-18T18:31:12.570Z,17.37
2019-02-18T18:33:40.603Z,20.50
2019-02-18T18:36:09.205Z,16.87
2019-02-18T18:38:37.500Z,22.93
2019-02-18T18:41:05.789Z,16.97
2019-02-18T18:43:42.819Z,22.77
2019-02-18T18:46:10.761Z,21.77
2019-02-18T18:48:39.520Z,19.43
2019-02-18T18:51:07.789Z,21.03
2019-02-18T18:53:36.488Z,25.77
2019-02-18T18:56:04.860Z,27.90
2019-02-18T18:58:33.489Z,22.80
2019-02-18T19:01:01.824Z,25.03
2019-02-18T19:03:30.103Z,18.87
2019-02-18T19:05:58.403Z,16.63
2019-02-18T19:08:26.986Z,17.83
2019-02-18T19:10:54.929Z,18.63
2019-02-18T19:13:31.163Z,17.47
2019-02-18T19:15:59.205Z,19.50
2019-02-18T19:18:27.506Z,18.85
2019-02-18T19:20:55.866Z,15.15
2019-02-18T19:23:23.475Z,13.77
2019-02-18T19:25:51.921Z,14.67
2019-02-18T19:28:19.808Z,15.23
2019-02-18T19:30:48.094Z,16.33
2019-02-18T19:33:16.855Z,17.80
2019-02-18T19:35:44.937Z,16.33
2019-02-18T19:38:13.038Z,19.60
2019-02-18T19:40:41.422Z,24.93
2019-02-18T19:43:09.209Z,24.53
2019-02-18T19:45:36.781Z,22.47
2019-02-18T19:48:04.724Z,30.27
2019-02-18T19:50:32.295Z,30.00
2019-02-18T19:53:00.590Z,22.63
2019-02-18T19:55:28.942Z,22.87
2019-02-18T19:58:05.593Z,26.00
2019-02-18T20:00:33.900Z,25.07
2019-02-18T20:03:02.571Z,20.97
2019-02-18T20:05:30.930Z,19.30
2019-02-18T20:07:59.297Z,16.33
2019-02-18T20:10:27.654Z,19.17
2019-02-18T20:12:56.435Z,19.97
2019-02-18T20:15:25.156Z,17.67
2019-02-18T20:17:53.704Z,21.60
2019-02-18T20:20:22.373Z,19.57
2019-02-18T20:22:50.676Z,16.90
2019-02-18T20:25:18.985Z,22.37
2019-02-18T20:27:59.227Z,21.07
2019-02-18T20:30:28.020Z,19.43
2019-02-18T20:32:56.912Z,19.43
2019-02-18T20:35:25.222Z,18.40
2019-02-18T20:37:53.989Z,18.07
2019-02-18T20:40:22.990Z,19.43
2019-02-18T20:42:51.303Z,17.67
2019-02-18T20:45:18.959Z,23.07
2019-02-18T20:47:47.329Z,23.27
2019-02-18T20:50:15.615Z,22.67
2019-02-18T20:52:43.161Z,19.97
2019-02-18T20:55:11.145Z,20.47
2019-02-18T20:57:39.431Z,20.53
2019-02-18T21:02:52.926Z,20.60
2019-02-18T21:05:21.273Z,20.90
2019-02-18T21:07:49.514Z,23.97
2019-02-18T21:10:24.962Z,24.83
2019-02-18T21:12:53.619Z,25.67
2019-02-18T21:15:22.494Z,24.37
2019-02-18T21:17:51.161Z,22.60
2019-02-18T21:20:19.816Z,51.77
2019-02-18T21:22:48.685Z,39.03
2019-02-18T21:25:17.279Z,30.93
2019-02-18T21:27:45.960Z,29.83
2019-02-18T21:30:14.192Z,29.07
2019-02-18T21:32:42.563Z,25.17
2019-02-18T21:35:10.975Z,24.77
2019-02-18T21:37:39.244Z,20.00
2019-02-18T21:40:27.195Z,22.67
2019-02-18T21:42:55.006Z,20.87
2019-02-18T21:45:24.063Z,22.93
2019-02-18T21:47:52.860Z,21.43
2019-02-18T21:50:22.124Z,23.37
2019-02-18T21:52:50.748Z,24.23
2019-02-18T21:55:19.062Z,21.00
2019-02-18T21:58:06.909Z,22.83
2019-02-18T22:00:47.139Z,19.00
2019-02-18T22:06:31.765Z,24.23
2019-02-18T22:09:00.155Z,24.37
2019-02-18T22:11:29.304Z,23.50
2019-02-18T22:13:58.004Z,28.60
2019-02-18T22:16:26.551Z,35.10
2019-02-18T22:19:35.130Z,27.00
2019-02-18T22:22:03.738Z,22.73
2019-02-18T22:24:31.622Z,24.00
2019-02-18T22:26:59.796Z,27.87
2019-02-18T22:32:36.211Z,23.43
2019-02-18T22:35:04.441Z,21.30
2019-02-18T22:37:41.212Z,23.60
2019-02-18T22:40:21.155Z,19.97
2019-02-18T22:42:49.451Z,24.03
2019-02-18T22:45:17.771Z,23.37
2019-02-18T22:47:45.722Z,24.87
2019-02-18T22:50:22.530Z,26.87
2019-02-18T22:52:51.350Z,26.37
2019-02-18T22:55:20.013Z,27.03
2019-02-18T22:57:48.038Z,23.83
2019-02-18T23:03:37.357Z,23.90
2019-02-18T23:06:05.725Z,27.10
2019-02-18T23:08:34.404Z,26.53
2019-02-18T23:11:02.568Z,24.77
2019-02-18T23:13:30.809Z,25.17
2019-02-18T23:15:59.452Z,25.50
2019-02-18T23:18:27.727Z,27.73
2019-02-18T23:20:55.946Z,28.10
2019-02-18T23:23:23.888Z,26.53
2019-02-18T23:25:52.046Z,28.57
2019-02-18T23:28:20.512Z,29.87
2019-02-18T23:30:48.495Z,28.70
2019-02-18T23:33:16.707Z,26.03
2019-02-18T23:35:45.301Z,25.07
2019-02-18T23:38:13.921Z,24.77
2019-02-18T23:40:42.616Z,31.33
2019-02-18T23:43:10.850Z,30.83
2019-02-18T23:45:39.444Z,28.33
2019-02-18T23:48:07.874Z,28.60
2019-02-18T23:50:36.194Z,25.30
2019-02-18T23:53:04.221Z,27.10
2019-02-18T23:55:32.823Z,20.83
2019-02-18T23:58:01.140Z,25.57
